sensor_id;sensor_type;location;lat;lon;timestamp;pressure;altitude;pressure_sealevel;temperature;humidity
10921;BME280;5513;50.580;8.818;2023-06-04T00:02:09;99297.00;;;16.12;54.84
10921;BME280;5513;50.580;8.818;2023-06-04T00:04:38;99293.06;;;15.74;56.98
10921;BME280;5513;50.580;8.818;2023-06-04T00:07:06;99291.13;;;15.97;56.44
10921;BME280;5513;50.580;8.818;2023-06-04T00:09:36;99285.72;;;15.88;56.92
10921;BME280;5513;50.580;8.818;2023-06-04T00:12:05;99285.13;;;15.84;57.00
10921;BME280;5513;50.580;8.818;2023-06-04T00:14:34;99281.00;;;15.80;57.16
10921;BME280;5513;50.580;8.818;2023-06-04T00:17:02;99284.50;;;15.49;58.66
10921;BME280;5513;50.580;8.818;2023-06-04T00:19:31;99273.81;;;15.49;60.12
10921;BME280;5513;50.580;8.818;2023-06-04T00:22:00;99283.41;;;15.40;61.56
10921;BME280;5513;50.580;8.818;2023-06-04T00:24:29;99279.38;;;15.02;65.31
10921;BME280;5513;50.580;8.818;2023-06-04T00:26:59;99273.31;;;15.00;67.22
10921;BME280;5513;50.580;8.818;2023-06-04T00:29:27;99274.13;;;15.12;67.73
10921;BME280;5513;50.580;8.818;2023-06-04T00:31:56;99279.03;;;14.84;69.43
10921;BME280;5513;50.580;8.818;2023-06-04T00:34:24;99284.13;;;14.99;68.76
10921;BME280;5513;50.580;8.818;2023-06-04T00:36:53;99287.22;;;15.15;68.52
10921;BME280;5513;50.580;8.818;2023-06-04T00:39:21;99280.63;;;14.87;69.50
10921;BME280;5513;50.580;8.818;2023-06-04T00:41:49;99281.22;;;14.79;70.08
10921;BME280;5513;50.580;8.818;2023-06-04T00:44:19;99275.75;;;14.70;71.74
10921;BME280;5513;50.580;8.818;2023-06-04T00:46:52;99284.06;;;14.43;73.54
10921;BME280;5513;50.580;8.818;2023-06-04T00:49:22;99293.38;;;14.37;75.57
10921;BME280;5513;50.580;8.818;2023-06-04T00:51:50;99287.38;;;14.46;75.60
10921;BME280;5513;50.580;8.818;2023-06-04T00:54:19;99290.78;;;14.48;75.06
10921;BME280;5513;50.580;8.818;2023-06-04T00:56:49;99288.44;;;14.44;75.13
10921;BME280;5513;50.580;8.818;2023-06-04T00:59:19;99288.44;;;14.44;74.78
10921;BME280;5513;50.580;8.818;2023-06-04T01:01:51;99289.78;;;14.38;75.57
10921;BME280;5513;50.580;8.818;2023-06-04T01:04:26;99294.47;;;14.35;75.76
10921;BME280;5513;50.580;8.818;2023-06-04T01:06:57;99295.31;;;14.24;76.38
10921;BME280;5513;50.580;8.818;2023-06-04T01:09:26;99300.59;;;14.13;76.86
10921;BME280;5513;50.580;8.818;2023-06-04T01:11:55;99297.81;;;14.14;78.06
10921;BME280;5513;50.580;8.818;2023-06-04T01:14:26;99289.09;;;14.12;78.03
10921;BME280;5513;50.580;8.818;2023-06-04T01:16:58;99287.81;;;14.29;77.44
10921;BME280;5513;50.580;8.818;2023-06-04T01:22:38;99291.50;;;14.04;78.01
10921;BME280;5513;50.580;8.818;2023-06-04T01:25:12;99290.19;;;14.10;77.79
10921;BME280;5513;50.580;8.818;2023-06-04T01:27:48;99288.28;;;14.34;77.37
10921;BME280;5513;50.580;8.818;2023-06-04T01:30:24;99290.69;;;14.26;77.31
10921;BME280;5513;50.580;8.818;2023-06-04T01:32:54;99286.19;;;14.15;78.26
10921;BME280;5513;50.580;8.818;2023-06-04T01:35:23;99287.78;;;14.18;78.57
10921;BME280;5513;50.580;8.818;2023-06-04T01:37:55;99279.59;;;13.97;80.11
10921;BME280;5513;50.580;8.818;2023-06-04T01:40:24;99284.53;;;13.55;83.44
10921;BME280;5513;50.580;8.818;2023-06-04T01:42:53;99288.25;;;13.77;84.01
10921;BME280;5513;50.580;8.818;2023-06-04T01:45:25;99294.75;;;13.61;85.63
10921;BME280;5513;50.580;8.818;2023-06-04T01:47:53;99289.88;;;13.55;86.82
10921;BME280;5513;50.580;8.818;2023-06-04T01:50:22;99289.00;;;13.55;87.03
10921;BME280;5513;50.580;8.818;2023-06-04T01:52:51;99283.00;;;13.64;87.08
10921;BME280;5513;50.580;8.818;2023-06-04T01:55:20;99291.38;;;13.46;88.25
10921;BME280;5513;50.580;8.818;2023-06-04T01:57:49;99288.59;;;13.48;89.18
10921;BME280;5513;50.580;8.818;2023-06-04T02:00:17;99282.56;;;13.46;88.68
10921;BME280;5513;50.580;8.818;2023-06-04T02:02:47;99281.31;;;13.63;87.50
10921;BME280;5513;50.580;8.818;2023-06-04T02:05:16;99274.06;;;13.65;85.07
10921;BME280;5513;50.580;8.818;2023-06-04T02:07:46;99289.63;;;13.58;85.36
10921;BME280;5513;50.580;8.818;2023-06-04T02:10:16;99294.41;;;13.42;85.74
10921;BME280;5513;50.580;8.818;2023-06-04T02:13:03;99292.84;;;13.27;86.04
10921;BME280;5513;50.580;8.818;2023-06-04T02:15:33;99293.38;;;13.32;85.19
10921;BME280;5513;50.580;8.818;2023-06-04T02:18:13;99297.16;;;13.40;86.10
10921;BME280;5513;50.580;8.818;2023-06-04T02:20:44;99292.47;;;13.44;84.76
10921;BME280;5513;50.580;8.818;2023-06-04T02:23:15;99290.50;;;13.35;85.11
10921;BME280;5513;50.580;8.818;2023-06-04T02:25:46;99297.91;;;13.42;84.26
10921;BME280;5513;50.580;8.818;2023-06-04T02:28:15;99294.97;;;13.22;86.11
10921;BME280;5513;50.580;8.818;2023-06-04T02:30:46;99303.41;;;13.15;87.69
10921;BME280;5513;50.580;8.818;2023-06-04T02:33:16;99298.78;;;13.30;87.16
10921;BME280;5513;50.580;8.818;2023-06-04T02:35:45;99299.66;;;13.18;87.03
10921;BME280;5513;50.580;8.818;2023-06-04T02:38:15;99297.22;;;13.15;87.04
10921;BME280;5513;50.580;8.818;2023-06-04T02:40:43;99304.09;;;12.81;90.01
10921;BME280;5513;50.580;8.818;2023-06-04T02:43:12;99304.81;;;12.96;89.91
10921;BME280;5513;50.580;8.818;2023-06-04T02:45:40;99302.38;;;12.93;90.17
10921;BME280;5513;50.580;8.818;2023-06-04T02:48:09;99297.47;;;12.99;89.22
10921;BME280;5513;50.580;8.818;2023-06-04T02:50:39;99305.97;;;13.04;88.50
10921;BME280;5513;50.580;8.818;2023-06-04T02:53:09;99303.81;;;13.09;88.42
10921;BME280;5513;50.580;8.818;2023-06-04T02:55:38;99300.50;;;13.18;88.54
10921;BME280;5513;50.580;8.818;2023-06-04T02:58:06;99302.66;;;13.13;88.46
10921;BME280;5513;50.580;8.818;2023-06-04T03:00:35;99304.59;;;12.99;89.53
10921;BME280;5513;50.580;8.818;2023-06-04T03:03:03;99304.91;;;13.07;89.18
10921;BME280;5513;50.580;8.818;2023-06-04T03:05:32;99301.06;;;13.11;88.44
10921;BME280;5513;50.580;8.818;2023-06-04T03:08:02;99313.13;;;12.91;90.08
10921;BME280;5513;50.580;8.818;2023-06-04T03:10:32;99309.81;;;13.00;90.51
10921;BME280;5513;50.580;8.818;2023-06-04T03:13:06;99309.91;;;12.99;90.78
10921;BME280;5513;50.580;8.818;2023-06-04T03:15:34;99307.19;;;12.87;91.78
10921;BME280;5513;50.580;8.818;2023-06-04T03:18:06;99310.38;;;12.80;92.45
10921;BME280;5513;50.580;8.818;2023-06-04T03:20:35;99307.41;;;12.72;93.40
10921;BME280;5513;50.580;8.818;2023-06-04T03:23:07;99312.50;;;12.87;92.71
10921;BME280;5513;50.580;8.818;2023-06-04T03:25:35;99309.91;;;12.99;92.22
10921;BME280;5513;50.580;8.818;2023-06-04T03:28:03;99307.13;;;13.00;92.14
10921;BME280;5513;50.580;8.818;2023-06-04T03:30:32;99314.16;;;13.01;91.40
10921;BME280;5513;50.580;8.818;2023-06-04T03:33:00;99312.91;;;12.81;92.01
10921;BME280;5513;50.580;8.818;2023-06-04T03:35:29;99308.53;;;13.06;91.18
10921;BME280;5513;50.580;8.818;2023-06-04T03:37:59;99305.13;;;12.91;90.69
10921;BME280;5513;50.580;8.818;2023-06-04T03:40:30;99317.38;;;12.81;90.37
10921;BME280;5513;50.580;8.818;2023-06-04T03:42:58;99302.81;;;12.86;90.38
10921;BME280;5513;50.580;8.818;2023-06-04T03:45:27;99308.75;;;12.90;90.47
10921;BME280;5513;50.580;8.818;2023-06-04T03:47:55;99308.25;;;12.85;90.68
10921;BME280;5513;50.580;8.818;2023-06-04T03:50:27;99305.44;;;12.99;90.26
10921;BME280;5513;50.580;8.818;2023-06-04T03:52:56;99312.75;;;13.08;89.76
10921;BME280;5513;50.580;8.818;2023-06-04T03:55:25;99305.63;;;13.09;89.23
10921;BME280;5513;50.580;8.818;2023-06-04T03:57:55;99310.22;;;13.20;87.56
10921;BME280;5513;50.580;8.818;2023-06-04T04:00:26;99307.63;;;13.31;87.24
10921;BME280;5513;50.580;8.818;2023-06-04T04:02:55;99308.63;;;13.04;88.30
10921;BME280;5513;50.580;8.818;2023-06-04T04:05:24;99306.16;;;13.14;88.65
10921;BME280;5513;50.580;8.818;2023-06-04T04:07:52;99313.50;;;13.10;89.74
10921;BME280;5513;50.580;8.818;2023-06-04T04:10:21;99308.19;;;13.10;89.96
10921;BME280;5513;50.580;8.818;2023-06-04T04:12:50;99307.34;;;13.10;89.95
10921;BME280;5513;50.580;8.818;2023-06-04T04:15:23;99312.34;;;13.02;90.64
10921;BME280;5513;50.580;8.818;2023-06-04T04:17:52;99319.09;;;12.95;91.54
10921;BME280;5513;50.580;8.818;2023-06-04T04:20:20;99309.78;;;13.13;90.74
10921;BME280;5513;50.580;8.818;2023-06-04T04:22:49;99316.38;;;13.07;89.54
10921;BME280;5513;50.580;8.818;2023-06-04T04:25:17;99319.28;;;13.04;90.43
10921;BME280;5513;50.580;8.818;2023-06-04T04:27:46;99315.19;;;13.11;90.79
10921;BME280;5513;50.580;8.818;2023-06-04T04:30:15;99318.03;;;12.84;91.39
10921;BME280;5513;50.580;8.818;2023-06-04T04:32:48;99318.97;;;12.96;93.53
10921;BME280;5513;50.580;8.818;2023-06-04T04:35:17;99314.91;;;12.90;94.93
10921;BME280;5513;50.580;8.818;2023-06-04T04:37:46;99319.72;;;12.85;96.24
10921;BME280;5513;50.580;8.818;2023-06-04T04:40:15;99312.94;;;13.18;95.85
10921;BME280;5513;50.580;8.818;2023-06-04T04:42:43;99320.34;;;12.89;96.86
10921;BME280;5513;50.580;8.818;2023-06-04T04:45:11;99315.19;;;13.11;97.68
10921;BME280;5513;50.580;8.818;2023-06-04T04:47:40;99317.97;;;13.10;97.65
10921;BME280;5513;50.580;8.818;2023-06-04T04:50:10;99319.63;;;12.87;100.00
10921;BME280;5513;50.580;8.818;2023-06-04T04:52:39;99320.56;;;12.99;100.00
10921;BME280;5513;50.580;8.818;2023-06-04T04:55:08;99321.09;;;12.91;100.00
10921;BME280;5513;50.580;8.818;2023-06-04T04:57:38;99326.59;;;13.01;100.00
10921;BME280;5513;50.580;8.818;2023-06-04T05:00:08;99323.63;;;13.05;100.00
10921;BME280;5513;50.580;8.818;2023-06-04T05:02:36;99326.06;;;13.21;100.00
10921;BME280;5513;50.580;8.818;2023-06-04T05:05:05;99328.28;;;13.27;99.71
10921;BME280;5513;50.580;8.818;2023-06-04T05:07:35;99328.59;;;13.35;99.49
10921;BME280;5513;50.580;8.818;2023-06-04T05:10:04;99328.88;;;13.43;100.00
10921;BME280;5513;50.580;8.818;2023-06-04T05:12:33;99324.34;;;13.57;99.00
10921;BME280;5513;50.580;8.818;2023-06-04T05:15:01;99335.88;;;13.68;96.20
10921;BME280;5513;50.580;8.818;2023-06-04T05:17:31;99333.53;;;13.53;96.59
10921;BME280;5513;50.580;8.818;2023-06-04T05:20:00;99328.66;;;13.70;94.82
10921;BME280;5513;50.580;8.818;2023-06-04T05:22:31;99337.44;;;13.84;97.59
10921;BME280;5513;50.580;8.818;2023-06-04T05:25:01;99341.56;;;13.64;96.64
10921;BME280;5513;50.580;8.818;2023-06-04T05:27:30;99343.41;;;13.98;95.59
10921;BME280;5513;50.580;8.818;2023-06-04T05:29:59;99341.38;;;14.02;94.26
10921;BME280;5513;50.580;8.818;2023-06-04T05:32:29;99337.28;;;14.09;92.16
10921;BME280;5513;50.580;8.818;2023-06-04T05:34:59;99338.91;;;14.23;89.78
10921;BME280;5513;50.580;8.818;2023-06-04T05:37:31;99346.50;;;14.16;90.16
10921;BME280;5513;50.580;8.818;2023-06-04T05:40:02;99344.06;;;14.13;89.74
10921;BME280;5513;50.580;8.818;2023-06-04T05:42:32;99341.97;;;14.41;89.69
10921;BME280;5513;50.580;8.818;2023-06-04T05:45:01;99357.19;;;14.51;87.01
10921;BME280;5513;50.580;8.818;2023-06-04T05:47:30;99350.16;;;14.50;86.22
10921;BME280;5513;50.580;8.818;2023-06-04T05:49:59;99348.09;;;14.54;85.36
10921;BME280;5513;50.580;8.818;2023-06-04T05:52:29;99349.56;;;14.69;84.51
10921;BME280;5513;50.580;8.818;2023-06-04T05:54:58;99357.56;;;14.80;85.31
10921;BME280;5513;50.580;8.818;2023-06-04T05:57:28;99354.78;;;15.04;83.30
10921;BME280;5513;50.580;8.818;2023-06-04T05:59:56;99356.47;;;14.94;82.49
10921;BME280;5513;50.580;8.818;2023-06-04T06:02:25;99353.59;;;14.97;80.64
10921;BME280;5513;50.580;8.818;2023-06-04T06:04:54;99359.88;;;15.18;80.73
10921;BME280;5513;50.580;8.818;2023-06-04T06:07:23;99359.50;;;15.34;77.63
10921;BME280;5513;50.580;8.818;2023-06-04T06:09:51;99359.84;;;15.41;79.05
10921;BME280;5513;50.580;8.818;2023-06-04T06:12:20;99358.66;;;15.45;74.83
10921;BME280;5513;50.580;8.818;2023-06-04T06:14:50;99359.47;;;15.57;77.69
10921;BME280;5513;50.580;8.818;2023-06-04T06:17:18;99359.34;;;15.58;73.32
10921;BME280;5513;50.580;8.818;2023-06-04T06:19:46;99364.09;;;15.66;73.84
10921;BME280;5513;50.580;8.818;2023-06-04T06:22:15;99366.56;;;15.90;74.01
10921;BME280;5513;50.580;8.818;2023-06-04T06:24:43;99369.00;;;15.93;73.62
10921;BME280;5513;50.580;8.818;2023-06-04T06:27:12;99371.75;;;16.02;73.11
10921;BME280;5513;50.580;8.818;2023-06-04T06:29:40;99367.34;;;16.01;73.16
10921;BME280;5513;50.580;8.818;2023-06-04T06:32:11;99370.53;;;16.27;72.12
10921;BME280;5513;50.580;8.818;2023-06-04T06:34:39;99369.84;;;16.46;70.34
10921;BME280;5513;50.580;8.818;2023-06-04T06:37:08;99370.56;;;16.69;69.13
10921;BME280;5513;50.580;8.818;2023-06-04T06:39:36;99370.88;;;16.76;65.72
10921;BME280;5513;50.580;8.818;2023-06-04T06:42:05;99370.03;;;16.75;66.80
10921;BME280;5513;50.580;8.818;2023-06-04T06:44:33;99378.25;;;17.14;62.83
10921;BME280;5513;50.580;8.818;2023-06-04T06:47:02;99378.03;;;16.96;59.52
10921;BME280;5513;50.580;8.818;2023-06-04T06:49:32;99385.72;;;17.10;57.17
10921;BME280;5513;50.580;8.818;2023-06-04T06:52:00;99392.53;;;17.24;55.68
10921;BME280;5513;50.580;8.818;2023-06-04T06:54:29;99390.63;;;17.45;54.56
10921;BME280;5513;50.580;8.818;2023-06-04T06:56:57;99380.53;;;17.49;55.83
10921;BME280;5513;50.580;8.818;2023-06-04T06:59:25;99388.44;;;17.60;54.98
10921;BME280;5513;50.580;8.818;2023-06-04T07:01:53;99394.41;;;17.73;52.94
10921;BME280;5513;50.580;8.818;2023-06-04T07:04:22;99384.81;;;17.71;52.96
10921;BME280;5513;50.580;8.818;2023-06-04T07:06:54;99391.25;;;17.59;53.20
10921;BME280;5513;50.580;8.818;2023-06-04T07:09:22;99381.94;;;17.63;53.51
10921;BME280;5513;50.580;8.818;2023-06-04T07:11:51;99389.66;;;17.87;52.56
10921;BME280;5513;50.580;8.818;2023-06-04T07:14:20;99387.84;;;18.16;50.73
10921;BME280;5513;50.580;8.818;2023-06-04T07:16:48;99389.94;;;18.13;50.85
10921;BME280;5513;50.580;8.818;2023-06-04T07:19:17;99385.72;;;18.39;50.34
10921;BME280;5513;50.580;8.818;2023-06-04T07:21:45;99391.06;;;18.49;48.38
10921;BME280;5513;50.580;8.818;2023-06-04T07:24:16;99388.38;;;18.49;47.87
10921;BME280;5513;50.580;8.818;2023-06-04T07:26:44;99391.38;;;18.46;48.47
10921;BME280;5513;50.580;8.818;2023-06-04T07:29:14;99388.94;;;18.72;47.45
10921;BME280;5513;50.580;8.818;2023-06-04T07:31:42;99388.22;;;18.79;48.45
10921;BME280;5513;50.580;8.818;2023-06-04T07:34:10;99379.06;;;18.82;48.11
10921;BME280;5513;50.580;8.818;2023-06-04T07:36:39;99388.53;;;18.76;47.94
10921;BME280;5513;50.580;8.818;2023-06-04T07:39:07;99389.09;;;18.70;48.54
10921;BME280;5513;50.580;8.818;2023-06-04T07:41:37;99387.13;;;18.82;48.04
10921;BME280;5513;50.580;8.818;2023-06-04T07:44:05;99388.91;;;18.91;47.90
10921;BME280;5513;50.580;8.818;2023-06-04T07:46:34;99386.28;;;19.19;47.24
10921;BME280;5513;50.580;8.818;2023-06-04T07:49:03;99387.78;;;19.31;47.48
10921;BME280;5513;50.580;8.818;2023-06-04T07:51:32;99389.34;;;19.33;46.75
10921;BME280;5513;50.580;8.818;2023-06-04T07:54:01;99390.38;;;19.50;47.52
10921;BME280;5513;50.580;8.818;2023-06-04T07:56:30;99396.28;;;19.54;46.74
10921;BME280;5513;50.580;8.818;2023-06-04T07:59:00;99381.47;;;19.59;45.07
10921;BME280;5513;50.580;8.818;2023-06-04T08:01:28;99384.19;;;19.95;43.27
10921;BME280;5513;50.580;8.818;2023-06-04T08:03:57;99396.59;;;19.78;43.50
10921;BME280;5513;50.580;8.818;2023-06-04T08:06:27;99394.56;;;19.90;43.96
10921;BME280;5513;50.580;8.818;2023-06-04T08:08:55;99390.75;;;20.10;44.65
10921;BME280;5513;50.580;8.818;2023-06-04T08:11:23;99395.13;;;20.29;44.85
10921;BME280;5513;50.580;8.818;2023-06-04T08:13:51;99392.97;;;20.15;44.00
10921;BME280;5513;50.580;8.818;2023-06-04T08:16:21;99392.97;;;20.33;45.04
10921;BME280;5513;50.580;8.818;2023-06-04T08:18:49;99395.97;;;20.29;44.63
10921;BME280;5513;50.580;8.818;2023-06-04T08:21:25;99390.88;;;20.62;43.07
10921;BME280;5513;50.580;8.818;2023-06-04T08:23:54;99387.97;;;20.55;42.30
10921;BME280;5513;50.580;8.818;2023-06-04T08:26:22;99392.38;;;20.82;41.77
10921;BME280;5513;50.580;8.818;2023-06-04T08:28:51;99391.22;;;20.85;40.32
10921;BME280;5513;50.580;8.818;2023-06-04T08:31:24;99379.59;;;21.10;40.48
10921;BME280;5513;50.580;8.818;2023-06-04T08:33:53;99385.66;;;21.12;40.99
10921;BME280;5513;50.580;8.818;2023-06-04T08:36:21;99389.72;;;21.17;39.58
10921;BME280;5513;50.580;8.818;2023-06-04T08:38:50;99393.22;;;21.35;39.82
10921;BME280;5513;50.580;8.818;2023-06-04T08:41:24;99395.47;;;21.48;37.06
10921;BME280;5513;50.580;8.818;2023-06-04T08:43:56;99400.53;;;21.51;37.25
10921;BME280;5513;50.580;8.818;2023-06-04T08:46:30;99405.03;;;21.42;36.73
10921;BME280;5513;50.580;8.818;2023-06-04T08:49:00;99405.69;;;21.36;37.20
10921;BME280;5513;50.580;8.818;2023-06-04T08:51:33;99400.19;;;21.46;36.78
10921;BME280;5513;50.580;8.818;2023-06-04T08:54:04;99401.56;;;21.58;36.91
10921;BME280;5513;50.580;8.818;2023-06-04T08:56:34;99404.34;;;21.74;37.76
10921;BME280;5513;50.580;8.818;2023-06-04T08:59:03;99397.44;;;21.80;37.17
10921;BME280;5513;50.580;8.818;2023-06-04T09:01:35;99394.31;;;22.00;36.31
10921;BME280;5513;50.580;8.818;2023-06-04T09:04:05;99393.91;;;21.87;35.68
10921;BME280;5513;50.580;8.818;2023-06-04T09:06:39;99393.41;;;21.84;36.17
10921;BME280;5513;50.580;8.818;2023-06-04T09:09:09;99389.41;;;22.04;34.58
10921;BME280;5513;50.580;8.818;2023-06-04T09:11:41;99392.69;;;22.24;34.26
10921;BME280;5513;50.580;8.818;2023-06-04T09:14:15;99396.03;;;22.18;33.37
10921;BME280;5513;50.580;8.818;2023-06-04T09:16:47;99393.72;;;22.39;32.87
10921;BME280;5513;50.580;8.818;2023-06-04T09:19:17;99404.28;;;22.08;33.21
10921;BME280;5513;50.580;8.818;2023-06-04T09:21:49;99406.53;;;22.45;31.99
10921;BME280;5513;50.580;8.818;2023-06-04T09:24:17;99396.06;;;22.91;32.64
10921;BME280;5513;50.580;8.818;2023-06-04T09:26:45;99399.94;;;22.48;32.97
10921;BME280;5513;50.580;8.818;2023-06-04T09:29:14;99401.28;;;22.44;33.97
10921;BME280;5513;50.580;8.818;2023-06-04T09:31:57;99407.88;;;22.66;33.62
10921;BME280;5513;50.580;8.818;2023-06-04T09:34:27;99402.63;;;23.05;33.88
10921;BME280;5513;50.580;8.818;2023-06-04T09:36:58;99404.94;;;23.16;32.72
10921;BME280;5513;50.580;8.818;2023-06-04T09:39:27;99407.22;;;22.88;32.66
10921;BME280;5513;50.580;8.818;2023-06-04T09:41:59;99403.13;;;23.08;32.11
10921;BME280;5513;50.580;8.818;2023-06-04T09:44:29;99396.63;;;23.34;32.56
10921;BME280;5513;50.580;8.818;2023-06-04T09:47:00;99393.09;;;23.33;32.11
10921;BME280;5513;50.580;8.818;2023-06-04T09:49:28;99392.41;;;23.39;30.96
10921;BME280;5513;50.580;8.818;2023-06-04T09:51:57;99395.59;;;23.43;32.22
10921;BME280;5513;50.580;8.818;2023-06-04T09:54:35;99395.91;;;23.48;31.59
10921;BME280;5513;50.580;8.818;2023-06-04T09:57:05;99397.66;;;23.33;32.22
10921;BME280;5513;50.580;8.818;2023-06-04T09:59:49;99397.22;;;23.68;31.44
10921;BME280;5513;50.580;8.818;2023-06-04T10:02:20;99388.28;;;23.60;30.88
10921;BME280;5513;50.580;8.818;2023-06-04T10:04:53;99388.72;;;23.72;31.47
10921;BME280;5513;50.580;8.818;2023-06-04T10:07:22;99393.59;;;23.84;32.13
10921;BME280;5513;50.580;8.818;2023-06-04T10:09:52;99398.88;;;24.01;30.79
10921;BME280;5513;50.580;8.818;2023-06-04T10:12:24;99397.03;;;24.01;30.70
10921;BME280;5513;50.580;8.818;2023-06-04T10:14:56;99393.19;;;23.95;30.51
10921;BME280;5513;50.580;8.818;2023-06-04T10:17:29;99387.97;;;24.40;30.65
10921;BME280;5513;50.580;8.818;2023-06-04T10:19:59;99382.81;;;24.53;30.16
10921;BME280;5513;50.580;8.818;2023-06-04T10:22:31;99383.47;;;24.01;30.74
10921;BME280;5513;50.580;8.818;2023-06-04T10:25:00;99387.16;;;24.08;31.15
10921;BME280;5513;50.580;8.818;2023-06-04T10:27:30;99389.66;;;24.41;31.10
10921;BME280;5513;50.580;8.818;2023-06-04T10:29:59;99387.50;;;24.36;31.11
10921;BME280;5513;50.580;8.818;2023-06-04T10:32:30;99380.38;;;24.81;30.08
10921;BME280;5513;50.580;8.818;2023-06-04T10:35:03;99388.44;;;24.66;29.44
10921;BME280;5513;50.580;8.818;2023-06-04T10:37:33;99374.25;;;25.17;28.95
10921;BME280;5513;50.580;8.818;2023-06-04T10:40:03;99384.69;;;24.90;30.47
10921;BME280;5513;50.580;8.818;2023-06-04T10:42:38;99381.25;;;25.26;29.78
10921;BME280;5513;50.580;8.818;2023-06-04T10:45:07;99386.56;;;25.63;28.89
10921;BME280;5513;50.580;8.818;2023-06-04T10:47:38;99380.94;;;25.65;28.98
10921;BME280;5513;50.580;8.818;2023-06-04T10:50:09;99376.69;;;25.41;29.57
10921;BME280;5513;50.580;8.818;2023-06-04T10:52:50;99380.69;;;25.60;28.97
10921;BME280;5513;50.580;8.818;2023-06-04T10:55:21;99379.38;;;25.26;29.57
10921;BME280;5513;50.580;8.818;2023-06-04T10:57:54;99377.56;;;25.92;28.94
10921;BME280;5513;50.580;8.818;2023-06-04T11:00:34;99375.84;;;26.06;27.63
10921;BME280;5513;50.580;8.818;2023-06-04T11:03:08;99372.31;;;25.91;28.08
10921;BME280;5513;50.580;8.818;2023-06-04T11:05:38;99368.34;;;26.30;27.93
10921;BME280;5513;50.580;8.818;2023-06-04T11:08:07;99378.94;;;26.24;27.48
10921;BME280;5513;50.580;8.818;2023-06-04T11:10:39;99369.53;;;26.42;27.16
10921;BME280;5513;50.580;8.818;2023-06-04T11:13:09;99372.38;;;26.55;26.75
10921;BME280;5513;50.580;8.818;2023-06-04T11:15:40;99364.50;;;26.39;25.80
10921;BME280;5513;50.580;8.818;2023-06-04T11:18:14;99374.34;;;26.04;26.89
10921;BME280;5513;50.580;8.818;2023-06-04T11:20:46;99367.50;;;26.29;27.29
10921;BME280;5513;50.580;8.818;2023-06-04T11:23:16;99363.28;;;26.69;26.60
10921;BME280;5513;50.580;8.818;2023-06-04T11:25:45;99355.75;;;26.65;27.30
10921;BME280;5513;50.580;8.818;2023-06-04T11:28:15;99353.53;;;26.81;28.42
10921;BME280;5513;50.580;8.818;2023-06-04T11:30:55;99351.50;;;26.84;27.53
10921;BME280;5513;50.580;8.818;2023-06-04T11:33:26;99352.78;;;27.16;26.68
10921;BME280;5513;50.580;8.818;2023-06-04T11:35:54;99354.22;;;26.84;27.57
10921;BME280;5513;50.580;8.818;2023-06-04T11:38:23;99354.03;;;27.13;27.16
10921;BME280;5513;50.580;8.818;2023-06-04T11:40:58;99353.63;;;27.64;26.51
10921;BME280;5513;50.580;8.818;2023-06-04T11:43:28;99347.31;;;28.11;25.70
10921;BME280;5513;50.580;8.818;2023-06-04T11:45:57;99356.22;;;27.37;25.70
10921;BME280;5513;50.580;8.818;2023-06-04T11:48:29;99357.16;;;27.58;25.61
10921;BME280;5513;50.580;8.818;2023-06-04T11:51:05;99354.47;;;27.64;25.32
10921;BME280;5513;50.580;8.818;2023-06-04T11:53:36;99358.56;;;27.88;24.47
10921;BME280;5513;50.580;8.818;2023-06-04T11:56:05;99358.69;;;27.67;25.30
10921;BME280;5513;50.580;8.818;2023-06-04T11:58:35;99350.84;;;27.92;26.58
10921;BME280;5513;50.580;8.818;2023-06-04T12:01:07;99349.63;;;27.53;26.93
10921;BME280;5513;50.580;8.818;2023-06-04T12:03:39;99349.75;;;27.86;24.83
10921;BME280;5513;50.580;8.818;2023-06-04T12:06:15;99346.19;;;27.86;25.65
10921;BME280;5513;50.580;8.818;2023-06-04T12:08:48;99345.53;;;27.71;25.12
10921;BME280;5513;50.580;8.818;2023-06-04T12:11:27;99341.56;;;27.73;25.92
10921;BME280;5513;50.580;8.818;2023-06-04T12:13:56;99345.47;;;28.65;24.89
10921;BME280;5513;50.580;8.818;2023-06-04T12:16:25;99340.03;;;27.64;25.15
10921;BME280;5513;50.580;8.818;2023-06-04T12:19:06;99336.28;;;28.39;24.99
10921;BME280;5513;50.580;8.818;2023-06-04T12:21:36;99338.94;;;27.52;27.50
10921;BME280;5513;50.580;8.818;2023-06-04T12:24:09;99335.78;;;28.16;26.34
10921;BME280;5513;50.580;8.818;2023-06-04T12:26:38;99335.00;;;28.29;25.99
10921;BME280;5513;50.580;8.818;2023-06-04T12:29:08;99326.13;;;29.13;25.50
10921;BME280;5513;50.580;8.818;2023-06-04T12:31:38;99329.06;;;28.05;26.79
10921;BME280;5513;50.580;8.818;2023-06-04T12:34:10;99330.94;;;27.44;26.81
10921;BME280;5513;50.580;8.818;2023-06-04T12:36:38;99335.97;;;28.01;25.39
10921;BME280;5513;50.580;8.818;2023-06-04T12:39:07;99332.47;;;28.34;25.75
10921;BME280;5513;50.580;8.818;2023-06-04T12:41:36;99330.41;;;28.42;25.68
10921;BME280;5513;50.580;8.818;2023-06-04T12:44:04;99330.41;;;28.89;26.07
10921;BME280;5513;50.580;8.818;2023-06-04T12:46:33;99332.69;;;29.05;25.23
10921;BME280;5513;50.580;8.818;2023-06-04T12:49:02;99325.94;;;28.15;27.26
10921;BME280;5513;50.580;8.818;2023-06-04T12:51:32;99327.81;;;28.28;26.22
10921;BME280;5513;50.580;8.818;2023-06-04T12:54:00;99329.09;;;29.18;25.57
10921;BME280;5513;50.580;8.818;2023-06-04T12:56:28;99323.25;;;28.94;25.28
10921;BME280;5513;50.580;8.818;2023-06-04T12:58:58;99316.13;;;28.47;26.40
10921;BME280;5513;50.580;8.818;2023-06-04T13:01:27;99327.09;;;27.79;27.53
10921;BME280;5513;50.580;8.818;2023-06-04T13:03:56;99329.03;;;27.99;26.12
10921;BME280;5513;50.580;8.818;2023-06-04T13:06:25;99322.44;;;28.61;25.62
10921;BME280;5513;50.580;8.818;2023-06-04T13:08:55;99324.06;;;28.95;25.14
10921;BME280;5513;50.580;8.818;2023-06-04T13:11:23;99316.31;;;28.85;25.26
10921;BME280;5513;50.580;8.818;2023-06-04T13:13:52;99308.88;;;29.32;24.63
10921;BME280;5513;50.580;8.818;2023-06-04T13:16:21;99322.66;;;29.57;24.03
10921;BME280;5513;50.580;8.818;2023-06-04T13:18:50;99314.53;;;29.82;24.94
10921;BME280;5513;50.580;8.818;2023-06-04T13:21:18;99321.28;;;29.21;25.67
10921;BME280;5513;50.580;8.818;2023-06-04T13:23:47;99322.63;;;28.92;26.20
10921;BME280;5513;50.580;8.818;2023-06-04T13:26:18;99326.41;;;28.58;26.17
10921;BME280;5513;50.580;8.818;2023-06-04T13:28:48;99314.28;;;29.45;25.30